Time;durP1;ratioP1;P1;durP2;ratioP2;P2;SDS_P1;SDS_P2;PMS_P1;PMS_P2;Temp;Humidity;BMP_temperature;BMP_pressure;BME280_temperature;BME280_humidity;BME280_pressure;Samples;Min_cycle;Max_cycle;Signal;HPM_P1;HPM_P2
2021/03/17 00:00:37;;;;;;;5.40;3.00;;;;;;;1.93;100.00;98663.61;3739332;79;26442;-18
2021/03/17 00:06:01;;;;;;;5.43;2.70;;;;;;;1.95;100.00;98661.22;3790420;77;26507;-18
2021/03/17 00:11:24;;;;;;;4.67;2.37;;;;;;;1.83;100.00;98656.71;3725722;78;26301;-18
2021/03/17 00:16:51;;;;;;;7.83;2.67;;;;;;;1.85;100.00;98655.64;3789073;77;26482;-18
2021/03/17 00:22:16;;;;;;;6.23;2.67;;;;;;;1.93;100.00;98663.12;3781398;77;26785;-18
2021/03/17 00:27:40;;;;;;;7.33;2.20;;;;;;;1.89;100.00;98663.42;3804876;77;26857;-18
2021/03/17 00:33:08;;;;;;;6.63;2.60;;;;;;;1.88;100.00;98657.73;3784717;77;26431;-18
2021/03/17 00:38:32;;;;;;;6.10;2.57;;;;;;;1.85;100.00;98658.80;3791859;77;26384;-18
2021/03/17 00:43:55;;;;;;;7.67;2.20;;;;;;;1.89;100.00;98654.97;3798637;77;26961;-18
2021/03/17 00:49:20;;;;;;;8.87;2.93;;;;;;;1.83;100.00;98652.72;3800669;77;26741;-18
2021/03/17 00:54:28;;;;;;;8.07;2.23;;;;;;;1.80;100.00;98653.78;3782344;77;26940;-17
2021/03/17 00:59:37;;;;;;;3.77;1.83;;;;;;;1.78;100.00;98651.70;3788541;77;26515;-18
2021/03/17 01:04:43;;;;;;;8.17;2.70;;;;;;;1.82;100.00;98646.55;3786840;77;44687;-18
2021/03/17 01:09:49;;;;;;;5.57;2.77;;;;;;;1.79;100.00;98649.88;3796061;77;44079;-17
2021/03/17 01:14:55;;;;;;;5.03;3.30;;;;;;;1.79;100.00;98653.41;3804552;76;42779;-19
2021/03/17 01:20:01;;;;;;;7.50;3.60;;;;;;;1.64;100.00;98651.73;3797946;77;44058;-19
2021/03/17 01:25:12;;;;;;;8.73;3.60;;;;;;;1.52;100.00;98649.41;3783185;77;44487;-19
2021/03/17 01:30:22;;;;;;;8.40;3.00;;;;;;;1.49;100.00;98644.28;3773398;77;43129;-19
2021/03/17 01:35:29;;;;;;;5.97;2.90;;;;;;;1.38;100.00;98650.27;3801893;77;44062;-21
2021/03/17 01:40:37;;;;;;;5.93;3.33;;;;;;;1.37;100.00;98648.56;3790405;77;44077;-19
2021/03/17 01:45:45;;;;;;;8.17;3.23;;;;;;;1.40;100.00;98647.53;3793260;77;43107;-19
2021/03/17 01:50:55;;;;;;;5.27;2.90;;;;;;;1.36;100.00;98650.84;3790185;77;42889;-19
2021/03/17 01:56:01;;;;;;;11.33;3.27;;;;;;;1.37;100.00;98642.80;3807095;77;44170;-19
2021/03/17 02:01:07;;;;;;;5.03;2.80;;;;;;;1.32;100.00;98636.07;3783440;77;44171;-19
2021/03/17 02:06:13;;;;;;;6.90;3.10;;;;;;;1.32;100.00;98644.87;3799789;77;43778;-19
2021/03/17 02:11:19;;;;;;;5.10;2.10;;;;;;;1.31;100.00;98642.33;3800825;77;43674;-18
2021/03/17 02:16:29;;;;;;;6.50;2.13;;;;;;;1.32;100.00;98642.22;3792042;77;44106;-19
2021/03/17 02:22:00;;;;;;;5.47;1.97;;;;;;;1.42;100.00;98640.30;3787647;77;43698;-19
2021/03/17 02:27:26;;;;;;;6.83;2.10;;;;;;;1.51;100.00;98642.39;3791252;77;44013;-19
2021/03/17 02:33:10;;;;;;;6.37;1.80;;;;;;;1.47;100.00;98640.38;3785123;77;44050;-19
2021/03/17 02:38:17;;;;;;;3.80;2.13;;;;;;;1.48;100.00;98643.91;3785015;77;43814;-19
2021/03/17 02:43:27;;;;;;;7.97;1.80;;;;;;;1.56;100.00;98645.58;3782984;76;43681;-19
2021/03/17 02:48:36;;;;;;;5.40;1.80;;;;;;;1.49;100.00;98641.63;3790926;77;44024;-19
2021/03/17 02:53:44;;;;;;;4.73;2.27;;;;;;;1.52;100.00;98650.25;3779138;76;43969;-19
2021/03/17 02:58:52;;;;;;;6.93;2.03;;;;;;;1.45;100.00;98647.62;3802336;77;44560;-19
2021/03/17 03:03:59;;;;;;;15.03;2.53;;;;;;;1.51;100.00;98645.88;3784545;77;43387;-18
2021/03/17 03:09:08;;;;;;;5.80;1.90;;;;;;;1.52;100.00;98638.30;3788519;77;43737;-18
2021/03/17 03:14:15;;;;;;;5.60;2.10;;;;;;;1.51;100.00;98640.57;3790182;77;43369;-18
2021/03/17 03:19:23;;;;;;;6.83;2.00;;;;;;;1.48;100.00;98648.73;3782207;77;44051;-18
2021/03/17 03:24:31;;;;;;;7.97;1.90;;;;;;;1.55;100.00;98643.87;3775147;77;43708;-18
2021/03/17 03:29:37;;;;;;;5.67;2.30;;;;;;;1.54;100.00;98643.04;3789011;77;44028;-18
2021/03/17 03:34:43;;;;;;;6.10;1.77;;;;;;;1.45;100.00;98646.30;3732632;78;43396;-18
2021/03/17 03:39:49;;;;;;;5.27;2.07;;;;;;;1.47;100.00;98643.53;3725437;79;43296;-18
2021/03/17 03:44:55;;;;;;;5.50;2.20;;;;;;;1.48;100.00;98642.58;3708652;77;44609;-18
2021/03/17 03:50:02;;;;;;;7.03;2.00;;;;;;;1.43;100.00;98648.64;3704815;77;43062;-19
2021/03/17 03:55:12;;;;;;;6.20;2.53;;;;;;;1.44;100.00;98647.70;3702480;79;43763;-19
2021/03/17 04:00:21;;;;;;;4.83;2.00;;;;;;;1.37;100.00;98644.12;3806571;77;43672;-18
2021/03/17 04:05:32;;;;;;;4.97;2.07;;;;;;;1.35;100.00;98641.20;3801108;77;43673;-18
2021/03/17 04:10:40;;;;;;;5.00;2.30;;;;;;;1.32;100.00;98642.70;3803029;77;44079;-18
2021/03/17 04:15:48;;;;;;;4.50;2.07;;;;;;;1.32;100.00;98650.67;3809372;76;44625;-18
2021/03/17 04:20:58;;;;;;;7.27;2.20;;;;;;;1.25;100.00;98648.88;3804077;77;44102;-18
2021/03/17 04:26:06;;;;;;;5.03;2.27;;;;;;;1.30;100.00;98648.58;3787273;76;43173;-17
2021/03/17 04:31:13;;;;;;;5.07;2.20;;;;;;;1.20;100.00;98649.63;3786964;77;43984;-17
2021/03/17 04:36:21;;;;;;;5.87;2.30;;;;;;;1.19;100.00;98647.92;3806765;77;44416;-18
2021/03/17 04:41:27;;;;;;;5.57;2.07;;;;;;;1.16;100.00;98654.28;3786972;76;43456;-18
2021/03/17 04:46:36;;;;;;;5.20;2.40;;;;;;;1.14;100.00;98660.64;3809543;77;42749;-18
2021/03/17 04:51:44;;;;;;;5.53;2.50;;;;;;;1.19;100.00;98655.88;3794809;77;43265;-18
2021/03/17 04:56:51;;;;;;;6.30;2.47;;;;;;;1.14;100.00;98665.46;3706973;77;43211;-17
2021/03/17 05:01:57;;;;;;;5.27;2.47;;;;;;;1.09;100.00;98667.56;3783193;77;44396;-18
2021/03/17 05:07:04;;;;;;;4.37;2.33;;;;;;;1.03;100.00;98666.60;3803521;76;43364;-18
2021/03/17 05:12:13;;;;;;;8.00;2.50;;;;;;;0.99;100.00;98675.23;3701689;79;43467;-17
2021/03/17 05:17:22;;;;;;;6.13;2.43;;;;;;;0.88;100.00;98675.87;3784172;77;44175;-17
2021/03/17 05:22:29;;;;;;;5.47;3.20;;;;;;;0.86;100.00;98677.80;3777293;77;44019;-18
2021/03/17 05:27:37;;;;;;;7.80;2.63;;;;;;;0.80;100.00;98679.48;3802380;77;44070;-18
2021/03/17 05:32:45;;;;;;;8.23;3.10;;;;;;;0.85;100.00;98676.54;3788593;77;43301;-18
2021/03/17 05:37:53;;;;;;;5.87;2.80;;;;;;;0.84;100.00;98682.33;3796692;77;43398;-17
2021/03/17 05:43:01;;;;;;;6.97;2.90;;;;;;;0.85;100.00;98678.73;3714054;78;43989;-18
2021/03/17 05:48:09;;;;;;;5.13;2.93;;;;;;;0.86;100.00;98687.53;3729994;77;43364;-18
2021/03/17 05:53:16;;;;;;;6.53;2.93;;;;;;;0.84;100.00;98692.95;3715656;78;42851;-17
2021/03/17 05:58:23;;;;;;;6.47;3.20;;;;;;;0.82;100.00;98704.59;3803992;77;43976;-18
2021/03/17 06:03:30;;;;;;;8.13;2.97;;;;;;;0.88;100.00;98700.23;3723690;78;43400;-18
2021/03/17 06:08:41;;;;;;;5.10;2.77;;;;;;;0.95;100.00;98706.02;3728363;78;43451;-18
2021/03/17 06:13:50;;;;;;;5.90;2.80;;;;;;;0.96;100.00;98717.86;3670904;80;44137;-18
2021/03/17 06:19:00;;;;;;;7.37;3.20;;;;;;;1.02;100.00;98719.28;3770638;78;43766;-18
2021/03/17 06:24:08;;;;;;;5.80;2.73;;;;;;;1.01;100.00;98724.20;3731267;78;43429;-18
2021/03/17 06:29:15;;;;;;;4.40;2.77;;;;;;;1.09;100.00;98727.27;3826557;77;44043;-17
2021/03/17 06:34:21;;;;;;;8.90;2.93;;;;;;;1.14;100.00;98727.82;3775724;78;44000;-18
2021/03/17 06:39:35;;;;;;;7.60;2.77;;;;;;;1.19;100.00;98738.16;3767723;78;43261;-18
2021/03/17 06:44:41;;;;;;;5.37;2.47;;;;;;;1.26;100.00;98739.95;3729817;78;44076;-17
2021/03/17 06:49:49;;;;;;;5.40;2.43;;;;;;;1.27;100.00;98746.97;3821841;77;43523;-17
2021/03/17 06:55:11;;;;;;;6.97;2.47;;;;;;;1.26;100.00;98747.92;3770500;78;44032;-17
2021/03/17 07:00:35;;;;;;;3.83;2.43;;;;;;;1.35;100.00;98748.22;3761908;78;43377;-18
2021/03/17 07:05:44;;;;;;;4.97;1.90;;;;;;;1.40;100.00;98743.95;3767117;78;43513;-17
2021/03/17 07:10:53;;;;;;;3.70;2.43;;;;;;;1.23;100.00;98737.03;3767924;78;44180;-17
2021/03/17 07:16:00;;;;;;;4.90;2.17;;;;;;;1.28;100.00;98741.59;3773538;77;44464;-17
2021/03/17 07:21:08;;;;;;;6.87;2.20;;;;;;;1.36;100.00;98737.11;3715046;78;43333;-17
2021/03/17 07:26:20;;;;;;;3.50;1.90;;;;;;;1.22;100.00;98736.19;3804149;77;43674;-17
2021/03/17 07:31:29;;;;;;;5.77;2.40;;;;;;;1.34;100.00;98744.34;3718234;78;43707;-17
2021/03/17 07:36:41;;;;;;;3.03;2.00;;;;;;;1.45;100.00;98737.89;3792412;77;44833;-17
2021/03/17 07:41:49;;;;;;;4.43;2.10;;;;;;;1.40;100.00;98750.58;3794334;76;44139;-17
2021/03/17 07:46:57;;;;;;;4.17;2.03;;;;;;;1.40;100.00;98753.23;3795801;77;43760;-17
2021/03/17 07:52:06;;;;;;;8.50;2.07;;;;;;;1.46;100.00;98767.94;3715608;78;43981;-17
2021/03/17 07:57:12;;;;;;;4.60;2.00;;;;;;;1.49;100.00;98768.59;3796510;76;43627;-18
2021/03/17 08:02:20;;;;;;;4.60;1.50;;;;;;;1.61;100.00;98774.09;3785868;77;43750;-17
2021/03/17 08:07:27;;;;;;;5.03;1.73;;;;;;;1.43;100.00;98766.33;3789998;76;44087;-17
2021/03/17 08:12:34;;;;;;;3.43;1.80;;;;;;;1.59;100.00;98764.90;3661384;80;43348;-17
2021/03/17 08:17:41;;;;;;;5.17;1.73;;;;;;;1.70;100.00;98765.56;3825091;76;42972;-17
2021/03/17 08:22:51;;;;;;;3.43;1.70;;;;;;;1.64;100.00;98764.61;3768020;78;43060;-17
2021/03/17 08:28:17;;;;;;;7.73;1.87;;;;;;;1.54;100.00;98766.98;3707300;79;44031;-17
2021/03/17 08:33:34;;;;;;;3.90;1.73;;;;;;;1.57;100.00;98759.31;3820383;77;44022;-17
2021/03/17 08:39:00;;;;;;;6.37;1.93;;;;;;;1.85;100.00;98766.39;3829261;77;43332;-17
2021/03/17 08:44:14;;;;;;;7.10;2.20;;;;;;;1.90;100.00;98763.44;3818603;77;44173;-17
2021/03/17 08:49:31;;;;;;;7.67;2.50;;;;;;;1.80;100.00;98768.47;3831546;77;43360;-17
2021/03/17 08:55:03;;;;;;;7.20;2.67;;;;;;;1.44;100.00;98776.47;3829674;77;44047;-17
2021/03/17 09:00:12;;;;;;;5.93;2.70;;;;;;;1.45;100.00;98780.38;3738078;78;43642;-17
2021/03/17 09:05:23;;;;;;;7.50;3.00;;;;;;;1.27;100.00;98787.66;3758798;78;43377;-17
2021/03/17 09:10:40;;;;;;;6.80;3.20;;;;;;;1.17;100.00;98792.66;3762088;78;44410;-17
2021/03/17 09:15:48;;;;;;;8.87;3.10;;;;;;;1.23;100.00;98790.95;3775475;77;43116;-18
2021/03/17 09:20:55;;;;;;;10.10;3.33;;;;;;;1.32;100.00;98788.70;3728694;78;43690;-17
2021/03/17 09:26:01;;;;;;;9.30;3.77;;;;;;;1.40;100.00;98785.09;3731456;79;44067;-18
2021/03/17 09:31:09;;;;;;;7.70;3.87;;;;;;;1.44;100.00;98791.94;3720595;77;88218;-17
2021/03/17 09:36:17;;;;;;;7.87;3.80;;;;;;;1.41;100.00;98796.09;3624804;81;43629;-18
2021/03/17 09:41:27;;;;;;;6.83;4.10;;;;;;;1.38;100.00;98800.27;3607133;81;44066;-17
2021/03/17 09:46:36;;;;;;;8.43;3.97;;;;;;;1.50;100.00;98800.84;3612772;81;44008;-17
2021/03/17 09:51:44;;;;;;;8.80;3.60;;;;;;;1.46;100.00;98808.63;3619285;81;43486;-18
2021/03/17 09:56:52;;;;;;;9.10;4.33;;;;;;;1.38;100.00;98809.55;3605361;81;44047;-18
2021/03/17 10:02:01;;;;;;;8.70;3.87;;;;;;;1.34;100.00;98816.02;3614523;81;44492;-17
2021/03/17 10:07:09;;;;;;;8.77;4.10;;;;;;;1.31;100.00;98814.87;3604693;81;44151;-17
2021/03/17 10:12:18;;;;;;;9.73;4.47;;;;;;;1.16;100.00;98812.19;3613389;81;43190;-16
2021/03/17 10:17:25;;;;;;;9.20;4.83;;;;;;;1.23;100.00;98809.53;3624756;80;43714;-17
2021/03/17 10:22:33;;;;;;;10.73;4.57;;;;;;;1.25;100.00;98815.22;3653805;80;43459;-16
2021/03/17 10:27:41;;;;;;;10.87;5.27;;;;;;;1.27;100.00;98816.86;3660199;80;44090;-16
2021/03/17 10:32:50;;;;;;;7.27;4.17;;;;;;;1.28;100.00;98811.06;3654121;80;43422;-16
2021/03/17 10:37:58;;;;;;;9.57;4.10;;;;;;;1.36;100.00;98809.66;3653963;80;44145;-16
2021/03/17 10:43:10;;;;;;;10.47;4.00;;;;;;;1.65;100.00;98805.67;3657196;79;43709;-16
2021/03/17 10:48:17;;;;;;;10.77;4.10;;;;;;;1.78;100.00;98813.74;3659418;79;44409;-16
2021/03/17 10:53:25;;;;;;;9.57;3.83;;;;;;;1.93;100.00;98813.73;3654912;80;43419;-16
2021/03/17 10:58:32;;;;;;;6.23;2.40;;;;;;;2.01;100.00;98820.73;3671369;80;43305;-16
2021/03/17 11:03:38;;;;;;;5.53;1.63;;;;;;;2.20;100.00;98820.42;3643737;79;43672;-17
2021/03/17 11:08:47;;;;;;;3.10;1.83;;;;;;;2.18;100.00;98817.47;3666452;80;43386;-16
2021/03/17 11:13:53;;;;;;;8.10;1.90;;;;;;;2.39;100.00;98813.45;3650866;79;43330;-17
2021/03/17 11:19:00;;;;;;;3.70;1.70;;;;;;;2.55;100.00;98813.75;3659009;79;44012;-16
2021/03/17 11:24:08;;;;;;;3.60;1.70;;;;;;;2.83;100.00;98810.12;3654289;80;44096;-17
2021/03/17 11:29:16;;;;;;;5.63;1.90;;;;;;;2.82;100.00;98816.42;3658082;80;44610;-16
2021/03/17 11:34:24;;;;;;;4.70;2.67;;;;;;;3.01;100.00;98814.68;3776091;77;43430;-17
2021/03/17 11:39:30;;;;;;;5.50;2.00;;;;;;;2.78;100.00;98818.41;3775891;76;43716;-16
2021/03/17 11:44:36;;;;;;;4.97;2.00;;;;;;;2.94;100.00;98817.39;3765308;77;43753;-17
2021/03/17 11:49:41;;;;;;;6.23;2.20;;;;;;;3.12;99.61;98808.64;3774559;77;44071;-17
2021/03/17 11:54:48;;;;;;;9.07;2.13;;;;;;;3.59;100.00;98810.79;3766711;77;44478;-17
2021/03/17 11:59:54;;;;;;;7.70;2.37;;;;;;;3.88;100.00;98812.73;3769040;77;43469;-17
2021/03/17 12:05:01;;;;;;;7.40;2.53;;;;;;;3.51;93.79;98817.98;3763565;77;43406;-17
2021/03/17 12:10:09;;;;;;;6.47;2.67;;;;;;;3.24;94.70;98814.92;3775978;77;44141;-17
2021/03/17 12:15:18;;;;;;;6.63;2.10;;;;;;;3.25;94.79;98811.30;3761911;77;42973;-18
2021/03/17 12:20:27;;;;;;;6.37;2.20;;;;;;;3.18;97.76;98820.19;3773895;77;44133;-17
2021/03/17 12:25:35;;;;;;;5.47;2.60;;;;;;;2.97;93.70;98817.20;3765701;77;44585;-19
2021/03/17 12:30:41;;;;;;;8.10;2.87;;;;;;;3.07;96.47;98814.28;3776002;77;44134;-18
2021/03/17 12:35:47;;;;;;;6.77;2.57;;;;;;;3.05;95.15;98829.50;3759190;77;43687;-18
2021/03/17 12:40:53;;;;;;;6.97;2.60;;;;;;;2.97;96.87;98824.31;3772244;77;44056;-18
2021/03/17 12:46:00;;;;;;;6.37;2.60;;;;;;;3.01;98.34;98816.01;3770537;77;44061;-22
2021/03/17 12:51:06;;;;;;;6.93;3.33;;;;;;;3.06;100.00;98821.02;3755147;77;44052;-18
2021/03/17 12:56:14;;;;;;;4.30;2.53;;;;;;;3.17;99.81;98820.30;3757729;77;43690;-19
2021/03/17 13:01:20;;;;;;;4.80;2.40;;;;;;;2.75;100.00;98838.59;3759667;77;44011;-18
2021/03/17 13:06:28;;;;;;;4.63;2.43;;;;;;;2.27;100.00;98836.34;3758699;77;44008;-19
2021/03/17 13:11:37;;;;;;;5.00;2.87;;;;;;;2.02;100.00;98831.75;3767200;77;42991;-18
2021/03/17 13:16:43;;;;;;;6.53;2.67;;;;;;;2.21;100.00;98834.55;3759318;77;43381;-16
2021/03/17 13:21:51;;;;;;;5.80;2.83;;;;;;;2.33;100.00;98836.43;3768493;77;43510;-16
2021/03/17 13:26:57;;;;;;;7.20;2.70;;;;;;;2.50;100.00;98839.81;3774097;77;43730;-17
2021/03/17 13:32:05;;;;;;;7.97;2.90;;;;;;;2.42;100.00;98838.48;3763655;77;43005;-17
2021/03/17 13:37:11;;;;;;;6.80;2.20;;;;;;;2.50;100.00;98843.80;3774607;77;43778;-17
2021/03/17 13:42:17;;;;;;;7.80;2.20;;;;;;;2.47;100.00;98846.16;3774609;77;44156;-17
2021/03/17 13:47:23;;;;;;;5.57;2.10;;;;;;;2.48;100.00;98840.39;3768020;77;44017;-18
2021/03/17 13:52:30;;;;;;;3.53;1.93;;;;;;;2.28;100.00;98843.37;3764889;77;44077;-18
2021/03/17 13:57:36;;;;;;;4.73;2.07;;;;;;;2.31;100.00;98850.30;3775190;77;43971;-18
2021/03/17 14:02:42;;;;;;;5.73;2.10;;;;;;;2.19;100.00;98845.30;3777427;77;44341;-16
2021/03/17 14:07:48;;;;;;;4.53;1.97;;;;;;;2.28;100.00;98855.83;3789372;77;44019;-17
2021/03/17 14:12:55;;;;;;;4.60;1.80;;;;;;;2.47;100.00;98855.47;3762531;77;42860;-17
2021/03/17 14:18:02;;;;;;;6.80;2.47;;;;;;;2.64;100.00;98858.86;3764189;77;43405;-17
2021/03/17 14:23:08;;;;;;;5.03;2.30;;;;;;;2.63;100.00;98858.02;3781126;78;44086;-18
2021/03/17 14:28:14;;;;;;;5.80;2.40;;;;;;;2.78;100.00;98859.66;3780556;78;44632;-18
2021/03/17 14:33:20;;;;;;;5.40;2.33;;;;;;;2.75;100.00;98860.34;3780969;78;43689;-18
2021/03/17 14:38:26;;;;;;;5.37;2.57;;;;;;;2.82;100.00;98854.14;3781119;78;43689;-17
2021/03/17 14:43:32;;;;;;;6.33;2.50;;;;;;;2.78;100.00;98864.97;3630997;81;43361;-18
2021/03/17 14:48:39;;;;;;;4.30;2.27;;;;;;;2.64;100.00;98862.39;3646816;80;44082;-17
2021/03/17 14:53:45;;;;;;;3.97;2.27;;;;;;;2.71;100.00;98857.48;3654174;80;44949;-17
2021/03/17 14:58:51;;;;;;;3.60;2.27;;;;;;;2.79;100.00;98863.19;3729096;79;43301;-18
2021/03/17 15:03:57;;;;;;;4.57;2.40;;;;;;;2.73;100.00;98864.44;3667447;79;43663;-17
2021/03/17 15:09:03;;;;;;;5.37;2.40;;;;;;;2.75;100.00;98866.53;3774646;78;44097;-17
2021/03/17 15:14:09;;;;;;;5.83;2.70;;;;;;;2.86;100.00;98871.62;3771402;78;43497;-18
2021/03/17 15:19:15;;;;;;;6.03;3.30;;;;;;;2.97;100.00;98868.23;3783386;77;43369;-17
2021/03/17 15:24:21;;;;;;;4.43;2.57;;;;;;;2.82;100.00;98871.43;3779506;77;44098;-20
2021/03/17 15:29:40;;;;;;;5.70;2.57;;;;;;;2.83;100.00;98874.47;3773272;77;43685;-17
2021/03/17 15:34:55;;;;;;;5.17;2.37;;;;;;;2.84;100.00;98877.02;3760435;77;42951;-16
2021/03/17 15:40:01;;;;;;;7.13;2.93;;;;;;;2.78;100.00;98890.74;3766876;77;44161;-16
2021/03/17 15:45:11;;;;;;;8.73;3.00;;;;;;;2.69;100.00;98892.67;3775730;77;44510;-17
2021/03/17 15:50:20;;;;;;;6.13;3.00;;;;;;;2.81;100.00;98891.01;3767945;77;43277;-23
2021/03/17 15:55:27;;;;;;;5.87;3.13;;;;;;;2.91;100.00;98885.45;3779433;77;44068;-18
2021/03/17 16:00:34;;;;;;;7.10;3.10;;;;;;;2.92;100.00;98898.68;3778055;76;43338;-19
2021/03/17 16:05:43;;;;;;;8.77;3.40;;;;;;;2.78;100.00;98894.24;3753196;77;43335;-37
2021/03/17 16:10:49;;;;;;;6.77;2.93;;;;;;;2.80;100.00;98896.82;3759699;77;43474;-16
2021/03/17 16:15:56;;;;;;;7.87;3.20;;;;;;;2.72;100.00;98902.64;3755212;77;44485;-18
2021/03/17 16:21:02;;;;;;;9.43;3.50;;;;;;;2.71;100.00;98906.25;3758074;77;44640;-17
2021/03/17 16:26:08;;;;;;;6.57;3.37;;;;;;;2.60;100.00;98904.27;3777424;77;43682;-17
2021/03/17 16:31:14;;;;;;;7.83;3.63;;;;;;;2.60;100.00;98904.27;3789385;77;44053;-17
2021/03/17 16:36:20;;;;;;;5.73;3.07;;;;;;;2.50;100.00;98910.30;3754772;77;44475;-16
2021/03/17 16:41:26;;;;;;;5.37;3.03;;;;;;;2.46;100.00;98906.49;3770967;77;43977;-17
2021/03/17 16:46:35;;;;;;;6.67;3.30;;;;;;;2.43;100.00;98914.66;3784539;77;43322;-18
2021/03/17 16:51:42;;;;;;;9.83;3.47;;;;;;;2.43;100.00;98919.14;3742617;77;43992;-16
2021/03/17 16:56:48;;;;;;;9.00;3.23;;;;;;;2.26;100.00;98911.73;3761293;77;44092;-16
2021/03/17 17:01:54;;;;;;;6.83;3.40;;;;;;;2.25;100.00;98910.52;3767285;77;43006;-16
2021/03/17 17:07:00;;;;;;;6.10;3.73;;;;;;;2.27;100.00;98918.77;3766538;77;43436;-16
2021/03/17 17:12:08;;;;;;;8.77;3.80;;;;;;;2.19;100.00;98909.55;3780874;77;45112;-16
2021/03/17 17:17:14;;;;;;;10.47;3.90;;;;;;;2.13;100.00;98916.98;3767741;77;43726;-18
2021/03/17 17:22:20;;;;;;;5.40;3.40;;;;;;;2.05;100.00;98917.07;3774762;77;43367;-16
2021/03/17 17:27:28;;;;;;;9.30;3.90;;;;;;;2.00;100.00;98923.52;3763752;77;44445;-17
2021/03/17 17:32:34;;;;;;;7.13;3.70;;;;;;;1.92;100.00;98932.93;3780794;76;43725;-17
2021/03/17 17:37:40;;;;;;;7.43;3.77;;;;;;;1.90;100.00;98944.12;3763649;77;43709;-17
2021/03/17 17:42:46;;;;;;;10.67;4.93;;;;;;;1.94;100.00;98969.08;3765575;77;44089;-17
2021/03/17 17:47:52;;;;;;;14.50;4.67;;;;;;;1.99;100.00;98963.48;3722420;78;43100;-17
2021/03/17 17:52:59;;;;;;;7.03;4.33;;;;;;;2.00;100.00;98969.19;3770193;77;43432;-18
2021/03/17 17:58:07;;;;;;;10.67;4.40;;;;;;;1.74;100.00;98968.11;3722592;78;43341;-17
2021/03/17 18:03:13;;;;;;;8.23;4.07;;;;;;;1.67;100.00;98969.78;3692640;79;43474;-16
2021/03/17 18:08:19;;;;;;;7.77;4.53;;;;;;;1.59;100.00;98973.38;3764427;77;43716;-17
2021/03/17 18:13:27;;;;;;;8.57;4.23;;;;;;;1.42;100.00;98974.38;3775955;77;43386;-17
2021/03/17 18:18:33;;;;;;;8.30;4.37;;;;;;;1.39;100.00;98970.56;3758239;77;44460;-17
2021/03/17 18:23:39;;;;;;;9.27;4.60;;;;;;;1.36;100.00;98973.38;3701654;79;44436;-17
2021/03/17 18:28:45;;;;;;;8.07;4.30;;;;;;;1.46;100.00;98980.34;3787107;77;43456;-18
2021/03/17 18:33:51;;;;;;;10.63;5.00;;;;;;;1.54;100.00;98971.45;3697063;79;43060;-17
2021/03/17 18:39:00;;;;;;;10.87;4.90;;;;;;;1.49;100.00;98982.84;3773280;77;43435;-17
2021/03/17 18:44:09;;;;;;;8.90;4.90;;;;;;;1.49;100.00;98982.34;3776057;77;43338;-18
2021/03/17 18:49:16;;;;;;;9.70;4.90;;;;;;;1.52;100.00;98982.17;3697021;78;44028;-17
2021/03/17 18:54:23;;;;;;;9.63;5.03;;;;;;;1.58;100.00;98990.25;3766773;77;43391;-17
2021/03/17 18:59:30;;;;;;;8.50;5.13;;;;;;;1.50;100.00;98993.36;3696193;78;44516;-17
2021/03/17 19:04:37;;;;;;;12.40;5.23;;;;;;;1.45;100.00;98993.24;3781818;77;43319;-18
2021/03/17 19:09:43;;;;;;;11.50;5.90;;;;;;;1.47;100.00;98987.37;3792411;77;43227;-17
2021/03/17 19:14:49;;;;;;;9.43;5.50;;;;;;;1.51;100.00;98988.92;3688997;78;43458;-17
2021/03/17 19:19:57;;;;;;;13.63;5.53;;;;;;;1.54;100.00;98998.88;3782844;77;43694;-17
2021/03/17 19:25:05;;;;;;;12.27;5.70;;;;;;;1.59;100.00;99007.06;3725393;78;43919;-17
2021/03/17 19:30:13;;;;;;;9.47;4.97;;;;;;;1.62;100.00;99001.55;3770284;77;43096;-18
2021/03/17 19:35:20;;;;;;;8.90;4.80;;;;;;;1.65;100.00;99008.02;3740709;79;43680;-18
2021/03/17 19:40:27;;;;;;;11.33;5.20;;;;;;;1.71;100.00;99001.00;3741909;78;43064;-18
2021/03/17 19:45:33;;;;;;;11.33;5.23;;;;;;;1.69;100.00;98998.93;3761477;78;43759;-18
2021/03/17 19:50:42;;;;;;;8.27;5.07;;;;;;;1.71;100.00;99001.00;3737334;78;44023;-18
2021/03/17 19:56:08;;;;;;;12.80;5.87;;;;;;;1.75;100.00;99007.85;3767452;77;26476;-18
2021/03/17 20:01:19;;;;;;;9.40;5.67;;;;;;;1.69;100.00;99014.88;3735550;79;26383;-18
2021/03/17 20:06:27;;;;;;;13.67;5.97;;;;;;;1.71;100.00;99020.08;3760321;78;26465;-18
2021/03/17 20:11:34;;;;;;;8.77;5.67;;;;;;;1.77;100.00;99017.92;3741514;78;43766;-18
2021/03/17 20:16:41;;;;;;;13.93;6.13;;;;;;;1.79;100.00;99021.80;3769400;77;43451;-18
2021/03/17 20:21:49;;;;;;;12.73;5.90;;;;;;;1.77;100.00;99007.30;3741138;78;44142;-18
2021/03/17 20:26:55;;;;;;;10.93;6.00;;;;;;;1.76;100.00;99008.23;3738060;78;43396;-17
2021/03/17 20:32:02;;;;;;;11.53;6.53;;;;;;;1.73;100.00;98999.11;3741558;78;43379;-17
2021/03/17 20:37:09;;;;;;;13.70;6.70;;;;;;;1.64;100.00;98999.66;3736069;79;44017;-18
2021/03/17 20:42:17;;;;;;;10.70;6.23;;;;;;;1.59;100.00;99000.42;3736897;78;26392;-18
2021/03/17 20:47:23;;;;;;;10.73;6.10;;;;;;;1.51;100.00;99009.67;3695943;79;44032;-17
2021/03/17 20:52:30;;;;;;;13.63;6.60;;;;;;;1.34;100.00;99015.97;3733438;78;43574;-18
2021/03/17 20:57:38;;;;;;;15.37;7.50;;;;;;;1.27;100.00;99017.72;3739484;78;43982;-18
2021/03/17 21:02:44;;;;;;;13.83;6.70;;;;;;;1.25;100.00;99017.82;3731916;79;43700;-18
2021/03/17 21:07:51;;;;;;;16.77;7.10;;;;;;;1.18;100.00;99013.78;3739502;78;43884;-18
2021/03/17 21:12:59;;;;;;;14.70;6.70;;;;;;;1.29;100.00;99026.46;3736609;79;26358;-18
2021/03/17 21:18:26;;;;;;;12.30;6.47;;;;;;;1.20;100.00;99034.47;3739525;78;27108;-18
2021/03/17 21:23:34;;;;;;;13.33;7.13;;;;;;;1.27;100.00;99034.98;3721608;79;44075;-18
2021/03/17 21:28:40;;;;;;;11.33;6.63;;;;;;;1.30;100.00;99035.66;3779395;77;45217;-18
2021/03/17 21:33:48;;;;;;;8.90;6.03;;;;;;;1.34;100.00;99038.53;3785932;77;26823;-17
2021/03/17 21:39:06;;;;;;;12.53;5.97;;;;;;;1.35;100.00;99036.75;3759949;77;26490;-18
2021/03/17 21:44:12;;;;;;;11.50;6.47;;;;;;;1.34;100.00;99037.69;3787780;77;43690;-18
2021/03/17 21:49:18;;;;;;;7.40;4.90;;;;;;;1.36;100.00;99043.73;3784453;77;43730;-18
2021/03/17 21:54:24;;;;;;;9.47;5.47;;;;;;;1.26;100.00;99048.73;3773011;77;43677;-17
2021/03/17 21:59:30;;;;;;;10.77;5.60;;;;;;;1.27;100.00;99057.54;3793433;77;44095;-17
2021/03/17 22:04:36;;;;;;;10.70;5.23;;;;;;;1.33;100.00;99062.52;3690727;78;43349;-18
2021/03/17 22:09:42;;;;;;;8.40;5.67;;;;;;;1.35;100.00;99064.63;3774974;78;44019;-18
2021/03/17 22:14:48;;;;;;;8.53;5.50;;;;;;;1.34;100.00;99069.55;3779834;77;44482;-18
2021/03/17 22:19:55;;;;;;;7.87;5.20;;;;;;;1.35;100.00;99066.80;3782492;77;43391;-27
2021/03/17 22:25:01;;;;;;;7.33;5.20;;;;;;;1.37;100.00;99060.92;3754264;77;43772;-19
2021/03/17 22:30:10;;;;;;;10.13;6.20;;;;;;;1.34;100.00;99058.44;3657257;78;44470;-19
2021/03/17 22:35:17;;;;;;;7.90;5.70;;;;;;;1.31;100.00;99053.78;3695662;79;43366;-20
2021/03/17 22:40:23;;;;;;;7.70;5.63;;;;;;;1.32;100.00;99051.52;3694931;79;43476;-19
2021/03/17 22:45:29;;;;;;;8.17;5.30;;;;;;;1.31;100.00;99052.45;3694713;79;44027;-19
2021/03/17 22:50:37;;;;;;;9.00;5.90;;;;;;;1.26;100.00;99054.05;3720110;79;44071;-19
2021/03/17 22:55:43;;;;;;;13.50;6.77;;;;;;;1.25;100.00;99044.37;3697472;79;44705;-20
2021/03/17 23:00:51;;;;;;;12.70;6.90;;;;;;;1.18;100.00;99043.86;3703120;79;44059;-19
2021/03/17 23:05:58;;;;;;;14.90;7.53;;;;;;;1.10;100.00;99042.11;3721338;79;43476;-19
2021/03/17 23:11:10;;;;;;;11.23;7.07;;;;;;;1.04;100.00;99043.77;3794383;77;43389;-20
2021/03/17 23:16:16;;;;;;;10.00;6.47;;;;;;;1.01;100.00;99051.44;3701683;78;43643;-17
2021/03/17 23:21:26;;;;;;;12.33;7.03;;;;;;;1.02;100.00;99041.66;3744047;78;44054;-17
2021/03/17 23:26:34;;;;;;;15.37;8.37;;;;;;;1.10;100.00;99038.59;3657448;80;44059;-18
2021/03/17 23:31:41;;;;;;;23.73;12.10;;;;;;;1.08;100.00;99045.31;3763551;77;43710;-18
2021/03/17 23:36:47;;;;;;;30.37;15.30;;;;;;;1.12;100.00;99052.14;3761868;77;43717;-18
2021/03/17 23:41:55;;;;;;;28.20;14.27;;;;;;;1.04;100.00;99049.08;3756655;77;44566;-18
2021/03/17 23:47:01;;;;;;;30.93;16.20;;;;;;;1.06;100.00;99037.42;3679578;80;44851;-17
2021/03/17 23:52:07;;;;;;;27.77;16.23;;;;;;;1.08;100.00;99036.03;3677198;79;43702;-18
2021/03/17 23:57:13;;;;;;;28.67;14.93;;;;;;;1.05;100.00;99025.13;3760846;77;45170;-19
